Terminal Aerodrome Forecast
Issued by NWS Wilmington, OH

Current Version | Previous Version | Graphics & Text | Print | Product List | Glossary On
Versions: 1 2 3 4 5 6 7 8 9 10 11 12 13 14 15 16
430
FTUS41 KILN 212336
TAFILN
TAF
KILN 212336Z 2200/2224 25005KT P6SM FEW050 SCT250
     FM220300 20004KT P6SM BKN250
     FM221400 21011KT P6SM SCT040 BKN200
     FM222000 20012KT P6SM VCSH BKN035=

USA.gov is the U.S. government's official web portal to all federal, state and local government web resources and services.